Time;durP1;ratioP1;P1;durP2;ratioP2;P2;SDS_P1;SDS_P2;PMS_P1;PMS_P2;Temp;Humidity;BMP_temperature;BMP_pressure;BME280_temperature;BME280_humidity;BME280_pressure;Samples;Min_cycle;Max_cycle;Signal;HPM_P1;HPM_P2
2023/01/09 00:01:02;;;;;;;2.90;2.50;;;17.10;54.10;;;;;;4968971;28;20449;-76
2023/01/09 00:03:32;;;;;;;2.93;2.60;;;17.10;54.20;;;;;;4971051;28;20481;-77
2023/01/09 00:06:00;;;;;;;2.83;2.53;;;17.10;54.00;;;;;;4964377;28;20459;-76
2023/01/09 00:08:28;;;;;;;4.07;2.67;;;17.10;54.30;;;;;;4966148;28;20454;-76
2023/01/09 00:10:56;;;;;;;3.33;2.80;;;17.10;54.20;;;;;;4975597;28;20477;-77
2023/01/09 00:13:24;;;;;;;3.10;2.70;;;17.10;54.30;;;;;;4966440;28;20836;-77
2023/01/09 00:15:51;;;;;;;3.50;2.70;;;17.10;54.20;;;;;;4968898;28;20458;-77
2023/01/09 00:18:20;;;;;;;2.80;2.43;;;17.10;54.10;;;;;;4967496;28;20443;-77
2023/01/09 00:20:49;;;;;;;2.80;2.50;;;17.10;54.10;;;;;;4968118;28;20450;-77
2023/01/09 00:23:17;;;;;;;3.83;2.70;;;17.10;54.20;;;;;;4972980;28;20474;-77
2023/01/09 00:25:45;;;;;;;2.27;2.17;;;17.10;54.20;;;;;;4978943;28;20458;-77
2023/01/09 00:28:12;;;;;;;2.87;2.63;;;17.10;54.40;;;;;;4963882;28;20457;-76
2023/01/09 00:30:40;;;;;;;2.70;2.50;;;17.10;54.30;;;;;;4968143;28;20485;-76
2023/01/09 00:33:09;;;;;;;3.03;2.70;;;17.10;54.30;;;;;;4974153;28;20478;-76
2023/01/09 00:35:37;;;;;;;2.30;2.20;;;17.10;54.40;;;;;;4974488;28;20454;-78
2023/01/09 00:38:06;;;;;;;4.57;2.30;;;17.10;54.40;;;;;;4970405;28;20809;-77
2023/01/09 00:40:33;;;;;;;4.00;2.50;;;17.10;54.40;;;;;;4970453;28;20449;-77
2023/01/09 00:43:02;;;;;;;4.60;3.00;;;17.10;54.40;;;;;;4973821;28;20474;-76
2023/01/09 00:45:30;;;;;;;2.43;2.17;;;17.10;54.40;;;;;;4963252;28;20453;-75
2023/01/09 00:48:00;;;;;;;2.20;2.10;;;17.10;54.40;;;;;;4962943;28;20458;-76
2023/01/09 00:50:30;;;;;;;2.77;2.57;;;17.10;54.40;;;;;;4969616;28;21130;-76
2023/01/09 00:53:00;;;;;;;3.33;2.73;;;17.10;54.40;;;;;;4963282;28;20474;-75
2023/01/09 00:55:30;;;;;;;2.77;2.30;;;17.10;54.30;;;;;;4967825;28;20459;-75
2023/01/09 00:57:57;;;;;;;3.30;2.70;;;17.10;54.40;;;;;;4968438;28;20455;-75
2023/01/09 01:00:25;;;;;;;2.80;2.40;;;17.10;54.30;;;;;;4967424;28;20469;-75
2023/01/09 01:02:53;;;;;;;2.30;2.13;;;17.10;54.30;;;;;;4967078;28;20470;-75
2023/01/09 01:08:10;;;;;;;2.30;2.10;;;17.10;54.40;;;;;;4972544;28;20442;-75
2023/01/09 01:10:40;;;;;;;3.00;1.93;;;17.10;54.40;;;;;;4966633;28;20482;-75
2023/01/09 01:13:08;;;;;;;3.50;2.60;;;17.10;54.40;;;;;;4974253;28;20470;-74
2023/01/09 01:15:38;;;;;;;2.50;2.30;;;17.10;54.50;;;;;;4963801;28;20465;-75
2023/01/09 01:18:06;;;;;;;3.80;2.63;;;17.10;54.50;;;;;;4962070;28;20450;-75
2023/01/09 01:20:34;;;;;;;2.37;2.17;;;17.10;54.60;;;;;;4971377;28;20434;-76
2023/01/09 01:23:01;;;;;;;4.13;2.23;;;17.10;54.70;;;;;;4968847;28;20478;-76
2023/01/09 01:25:29;;;;;;;2.90;2.60;;;17.10;54.80;;;;;;4968824;28;20461;-76
2023/01/09 01:27:59;;;;;;;2.80;2.40;;;17.10;54.80;;;;;;4973698;28;20465;-76
2023/01/09 01:30:27;;;;;;;3.90;2.17;;;17.10;54.80;;;;;;4974730;28;20470;-76
2023/01/09 01:32:55;;;;;;;2.27;2.17;;;17.10;54.70;;;;;;4969184;28;20993;-76
2023/01/09 01:35:25;;;;;;;2.40;2.23;;;17.00;54.80;;;;;;4969371;28;20462;-75
2023/01/09 01:37:53;;;;;;;2.70;2.30;;;17.00;54.90;;;;;;4971830;28;20458;-76
2023/01/09 01:40:21;;;;;;;2.27;2.07;;;17.10;54.90;;;;;;4970278;28;20484;-76
2023/01/09 01:42:52;;;;;;;2.80;2.20;;;17.00;55.00;;;;;;4967307;28;20487;-77
2023/01/09 01:45:21;;;;;;;4.00;1.97;;;17.00;55.10;;;;;;4970300;28;20509;-76
2023/01/09 01:47:54;;;;;;;2.30;2.10;;;17.10;55.10;;;;;;4966501;28;20466;-75
2023/01/09 01:50:27;;;;;;;4.30;2.23;;;17.10;55.20;;;;;;4974572;28;20450;-75
2023/01/09 01:53:00;;;;;;;2.70;2.47;;;17.10;55.10;;;;;;4971033;28;20886;-75
2023/01/09 01:55:28;;;;;;;5.63;2.10;;;17.00;55.00;;;;;;4984325;28;20455;-75
2023/01/09 01:57:58;;;;;;;3.17;2.00;;;17.00;55.00;;;;;;4992891;28;20461;-75
2023/01/09 02:00:30;;;;;;;2.10;1.87;;;17.00;55.30;;;;;;4994301;28;20435;-76
2023/01/09 02:02:58;;;;;;;2.27;2.07;;;17.00;55.30;;;;;;4992571;28;20464;-75
2023/01/09 02:05:26;;;;;;;3.00;2.10;;;17.00;55.30;;;;;;4993896;28;20445;-75
2023/01/09 02:07:53;;;;;;;4.93;2.70;;;17.00;55.40;;;;;;4992675;28;20442;-76
2023/01/09 02:10:22;;;;;;;3.13;2.00;;;17.00;55.30;;;;;;4993321;28;20529;-75
2023/01/09 02:12:50;;;;;;;3.30;2.10;;;17.00;55.20;;;;;;4994544;28;20513;-75
2023/01/09 02:15:18;;;;;;;2.87;1.90;;;17.00;55.10;;;;;;4989315;28;20457;-75
2023/01/09 02:18:14;;;;;;;2.70;2.20;;;17.00;55.30;;;;;;4979638;28;20463;-76
2023/01/09 02:20:48;;;;;;;2.27;2.07;;;17.00;55.80;;;;;;4966497;28;20470;-76
2023/01/09 02:23:49;;;;;;;2.07;1.70;;;16.90;55.30;;;;;;4971161;28;20468;-75
2023/01/09 02:26:38;;;;;;;2.50;1.90;;;17.00;55.40;;;;;;4941785;28;20450;-75
2023/01/09 02:29:49;;;;;;;2.03;1.90;;;16.90;55.40;;;;;;4968197;28;20469;-76
2023/01/09 02:32:24;;;;;;;1.70;1.60;;;16.90;55.40;;;;;;4969748;28;20486;-75
2023/01/09 02:34:56;;;;;;;2.90;1.80;;;16.90;55.70;;;;;;4969299;28;20462;-76
2023/01/09 02:37:29;;;;;;;3.33;1.67;;;16.90;55.60;;;;;;4968307;28;20458;-75
2023/01/09 02:40:01;;;;;;;2.90;1.70;;;16.90;55.50;;;;;;4966446;28;20534;-76
2023/01/09 02:42:29;;;;;;;3.03;2.00;;;16.90;55.70;;;;;;4961474;28;20465;-76
2023/01/09 02:44:56;;;;;;;2.10;1.90;;;16.90;55.70;;;;;;4972253;28;20454;-75
2023/01/09 02:47:38;;;;;;;3.80;1.73;;;16.90;55.70;;;;;;4968784;28;20485;-75
2023/01/09 02:50:08;;;;;;;2.37;2.17;;;17.00;55.80;;;;;;4969392;28;20461;-76
2023/01/09 02:52:41;;;;;;;2.20;1.87;;;16.90;55.80;;;;;;4971381;28;20481;-75
2023/01/09 02:55:10;;;;;;;3.47;1.90;;;16.90;55.90;;;;;;4982010;28;20450;-76
2023/01/09 02:57:46;;;;;;;3.07;2.10;;;16.90;55.90;;;;;;4974823;28;20446;-76
2023/01/09 03:00:20;;;;;;;1.73;1.63;;;16.90;55.80;;;;;;4970878;28;20445;-76
2023/01/09 03:02:50;;;;;;;1.83;1.60;;;17.00;56.00;;;;;;4967351;28;20475;-76
2023/01/09 03:05:21;;;;;;;2.37;1.80;;;17.00;55.80;;;;;;4969424;28;20450;-76
2023/01/09 03:07:53;;;;;;;1.90;1.80;;;16.90;55.80;;;;;;4969182;28;20453;-76
2023/01/09 03:10:22;;;;;;;2.97;2.00;;;16.90;56.00;;;;;;4966989;28;20988;-76
2023/01/09 03:12:51;;;;;;;2.90;2.00;;;16.90;55.90;;;;;;4971673;28;20501;-76
2023/01/09 03:15:19;;;;;;;2.23;1.90;;;16.90;56.10;;;;;;4972958;28;20937;-76
2023/01/09 03:17:48;;;;;;;2.50;2.20;;;16.90;56.60;;;;;;4970857;28;20457;-76
2023/01/09 03:20:18;;;;;;;2.30;1.97;;;16.90;56.10;;;;;;4966362;28;20454;-76
2023/01/09 03:22:52;;;;;;;2.80;1.90;;;16.90;56.10;;;;;;4967215;28;20469;-77
2023/01/09 03:25:21;;;;;;;5.10;2.20;;;16.90;56.20;;;;;;4967110;28;20462;-76
2023/01/09 03:27:49;;;;;;;4.83;2.30;;;16.90;56.30;;;;;;4973369;28;20516;-76
2023/01/09 03:30:18;;;;;;;2.20;2.10;;;16.90;56.20;;;;;;4972570;28;20450;-76
2023/01/09 03:32:45;;;;;;;2.07;1.97;;;16.90;56.30;;;;;;4969780;28;20490;-77
2023/01/09 03:35:15;;;;;;;2.40;1.70;;;16.90;56.30;;;;;;4969081;28;20450;-77
2023/01/09 03:37:43;;;;;;;1.80;1.70;;;17.00;56.30;;;;;;4964414;28;20474;-77
2023/01/09 03:40:11;;;;;;;2.00;1.90;;;16.90;56.40;;;;;;4966215;28;20454;-77
2023/01/09 03:42:39;;;;;;;2.00;1.90;;;16.90;56.50;;;;;;4967115;28;20450;-77
2023/01/09 03:45:07;;;;;;;1.90;1.80;;;17.00;56.60;;;;;;4970730;28;20450;-78
2023/01/09 03:47:35;;;;;;;2.00;1.90;;;16.90;56.50;;;;;;4972839;28;20463;-76
2023/01/09 03:50:03;;;;;;;4.90;2.03;;;16.90;56.50;;;;;;4968487;28;20461;-76
2023/01/09 03:52:32;;;;;;;1.90;1.80;;;17.00;56.70;;;;;;4971411;28;20478;-77
2023/01/09 03:55:01;;;;;;;2.20;2.00;;;16.90;56.60;;;;;;4969431;28;20457;-77
2023/01/09 03:57:28;;;;;;;1.63;1.53;;;17.00;56.70;;;;;;4969387;28;20454;-75
2023/01/09 03:59:56;;;;;;;1.87;1.77;;;17.00;56.60;;;;;;4970059;28;20462;-76
2023/01/09 04:02:24;;;;;;;2.10;1.90;;;17.00;56.60;;;;;;4973406;28;20462;-76
2023/01/09 04:04:52;;;;;;;2.13;1.93;;;17.00;56.70;;;;;;4972635;28;20804;-76
2023/01/09 04:07:20;;;;;;;3.43;2.03;;;17.00;56.70;;;;;;4973889;28;20449;-77
2023/01/09 04:09:49;;;;;;;2.60;1.73;;;17.00;56.80;;;;;;4972162;28;20461;-77
2023/01/09 04:12:17;;;;;;;1.97;1.63;;;17.00;56.80;;;;;;4969871;28;20457;-77
2023/01/09 04:14:44;;;;;;;2.10;2.00;;;16.90;56.80;;;;;;4970218;28;20481;-77
2023/01/09 04:17:15;;;;;;;1.80;1.70;;;17.00;56.90;;;;;;4971883;28;20453;-77
2023/01/09 04:19:43;;;;;;;1.87;1.77;;;16.90;57.00;;;;;;4971845;28;20497;-77
2023/01/09 04:22:10;;;;;;;2.00;1.90;;;17.00;57.00;;;;;;4970792;28;20454;-77
2023/01/09 04:24:38;;;;;;;1.83;1.73;;;16.90;56.90;;;;;;4964497;28;20473;-76
2023/01/09 04:27:07;;;;;;;2.20;2.07;;;16.90;56.90;;;;;;4970081;28;20457;-76
2023/01/09 04:29:35;;;;;;;2.13;1.73;;;16.90;57.00;;;;;;4972459;28;20457;-77
2023/01/09 04:32:03;;;;;;;1.90;1.80;;;16.90;57.10;;;;;;4974270;28;20474;-76
2023/01/09 04:34:31;;;;;;;3.37;2.00;;;16.90;57.00;;;;;;4972560;28;20482;-77
2023/01/09 04:36:59;;;;;;;4.40;2.30;;;16.90;57.00;;;;;;4966940;28;20457;-77
2023/01/09 04:39:27;;;;;;;1.60;1.53;;;16.90;57.10;;;;;;4962735;28;20576;-76
2023/01/09 04:41:55;;;;;;;2.20;1.57;;;16.90;57.00;;;;;;4969874;28;20466;-77
2023/01/09 04:44:25;;;;;;;1.70;1.60;;;16.90;57.10;;;;;;4976680;28;20480;-76
2023/01/09 04:46:53;;;;;;;2.03;1.90;;;16.90;57.00;;;;;;4970571;28;20459;-76
2023/01/09 04:49:21;;;;;;;3.87;1.90;;;16.90;57.00;;;;;;4972588;28;20956;-76
2023/01/09 04:51:49;;;;;;;2.10;1.70;;;16.90;57.00;;;;;;4966703;28;20458;-77
2023/01/09 04:54:17;;;;;;;2.77;1.83;;;16.90;57.10;;;;;;4974195;28;20486;-77
2023/01/09 04:56:45;;;;;;;1.70;1.60;;;16.90;57.00;;;;;;4967697;28;20458;-77
2023/01/09 04:59:13;;;;;;;1.57;1.47;;;16.90;57.00;;;;;;4976771;28;20454;-76
2023/01/09 05:01:42;;;;;;;1.73;1.63;;;16.80;57.10;;;;;;4973381;28;20469;-76
2023/01/09 05:04:11;;;;;;;1.93;1.53;;;16.80;57.20;;;;;;4974869;28;20548;-76
2023/01/09 05:06:40;;;;;;;1.70;1.60;;;16.80;57.20;;;;;;4971720;28;20466;-76
2023/01/09 05:09:07;;;;;;;3.13;1.70;;;16.80;57.20;;;;;;4972360;28;20458;-76
2023/01/09 05:11:35;;;;;;;2.30;1.83;;;16.80;57.20;;;;;;4977160;28;20450;-76
2023/01/09 05:14:03;;;;;;;1.50;1.40;;;16.80;57.30;;;;;;4974272;28;20479;-76
2023/01/09 05:16:31;;;;;;;2.03;1.73;;;16.80;57.30;;;;;;4974834;28;20461;-76
2023/01/09 05:19:01;;;;;;;1.47;1.47;;;16.80;57.30;;;;;;4974474;28;20513;-76
2023/01/09 05:21:29;;;;;;;2.87;1.90;;;16.80;57.40;;;;;;4981375;28;20458;-76
2023/01/09 05:23:57;;;;;;;2.40;1.60;;;16.70;57.30;;;;;;4975581;28;20474;-76
2023/01/09 05:26:25;;;;;;;3.37;1.60;;;16.70;57.30;;;;;;4973802;28;20454;-75
2023/01/09 05:28:53;;;;;;;2.70;1.90;;;16.70;57.40;;;;;;4975434;28;20450;-76
2023/01/09 05:31:20;;;;;;;1.80;1.70;;;16.70;57.30;;;;;;4974099;28;20466;-76
2023/01/09 05:33:49;;;;;;;1.50;1.40;;;16.70;57.30;;;;;;4973532;28;20486;-76
2023/01/09 05:36:18;;;;;;;2.70;1.40;;;16.70;57.30;;;;;;4975772;28;20455;-76
2023/01/09 05:38:46;;;;;;;1.77;1.67;;;16.70;57.30;;;;;;4976439;28;20462;-76
2023/01/09 05:41:13;;;;;;;2.17;1.97;;;16.60;57.30;;;;;;4971068;28;20477;-74
2023/01/09 05:43:42;;;;;;;1.70;1.60;;;16.60;57.30;;;;;;4974328;28;20504;-76
2023/01/09 05:46:09;;;;;;;2.60;1.60;;;16.60;57.40;;;;;;4967680;28;20458;-77
2023/01/09 05:48:37;;;;;;;3.17;1.50;;;16.60;57.50;;;;;;4973932;28;20450;-76
2023/01/09 05:51:05;;;;;;;1.70;1.60;;;16.60;57.40;;;;;;4975709;28;20454;-76
2023/01/09 05:53:34;;;;;;;2.10;1.87;;;16.60;57.40;;;;;;4966497;28;20510;-77
2023/01/09 05:56:02;;;;;;;1.60;1.50;;;16.50;57.40;;;;;;4977332;28;20938;-76
2023/01/09 05:58:30;;;;;;;1.70;1.60;;;16.60;57.50;;;;;;4973657;28;20477;-76
2023/01/09 06:00:58;;;;;;;1.83;1.73;;;16.50;57.50;;;;;;4984779;28;20440;-77
2023/01/09 06:03:26;;;;;;;2.07;1.97;;;16.50;57.40;;;;;;4976446;28;21004;-75
2023/01/09 06:05:55;;;;;;;1.90;1.80;;;16.50;57.60;;;;;;4973553;28;20457;-75
2023/01/09 06:08:23;;;;;;;1.50;1.40;;;16.50;57.40;;;;;;4974290;28;20458;-75
2023/01/09 06:10:53;;;;;;;1.43;1.33;;;16.40;57.40;;;;;;4971991;28;20455;-76
2023/01/09 06:13:21;;;;;;;1.50;1.40;;;16.40;57.40;;;;;;4971212;28;20481;-77
2023/01/09 06:15:48;;;;;;;1.90;1.40;;;16.40;57.50;;;;;;4972790;28;20450;-76
2023/01/09 06:18:16;;;;;;;1.67;1.57;;;16.40;57.60;;;;;;4973346;28;20457;-76
2023/01/09 06:20:44;;;;;;;3.63;1.63;;;16.40;57.60;;;;;;4975175;28;20458;-76
2023/01/09 06:23:13;;;;;;;1.67;1.57;;;16.40;57.50;;;;;;4970697;28;20468;-76
2023/01/09 06:25:40;;;;;;;1.40;1.30;;;16.40;57.40;;;;;;4972834;28;20457;-76
2023/01/09 06:28:10;;;;;;;2.73;1.97;;;16.40;57.50;;;;;;4975586;28;20455;-76
2023/01/09 06:30:38;;;;;;;1.67;1.57;;;16.30;57.30;;;;;;4973619;28;20456;-75
2023/01/09 06:33:06;;;;;;;1.63;1.53;;;16.40;57.60;;;;;;4975816;28;20492;-76
2023/01/09 06:35:34;;;;;;;1.80;1.70;;;16.30;57.40;;;;;;4974871;28;20528;-77
2023/01/09 06:38:02;;;;;;;1.80;1.70;;;16.30;57.30;;;;;;4976446;28;20461;-76
2023/01/09 06:40:30;;;;;;;1.83;1.50;;;16.30;57.40;;;;;;4971957;28;20465;-76
2023/01/09 06:42:58;;;;;;;3.43;1.63;;;16.30;57.70;;;;;;4974122;28;20496;-76
2023/01/09 06:45:27;;;;;;;2.07;1.73;;;16.30;57.40;;;;;;4976578;28;20454;-76
2023/01/09 06:47:55;;;;;;;3.10;1.73;;;16.30;57.40;;;;;;4974117;28;20454;-76
2023/01/09 06:50:23;;;;;;;1.57;1.47;;;16.30;57.40;;;;;;4973059;28;20462;-77
2023/01/09 06:52:51;;;;;;;1.90;1.80;;;16.20;57.40;;;;;;4976705;28;20482;-76
2023/01/09 06:55:19;;;;;;;1.73;1.63;;;16.20;57.40;;;;;;4971253;28;20481;-77
2023/01/09 06:57:46;;;;;;;1.67;1.57;;;16.20;57.50;;;;;;4975476;28;20462;-76
2023/01/09 07:00:16;;;;;;;1.70;1.60;;;16.20;57.50;;;;;;4976758;28;20454;-77
2023/01/09 07:02:45;;;;;;;2.60;1.67;;;16.20;57.50;;;;;;4970552;28;21007;-77
2023/01/09 07:05:13;;;;;;;1.80;1.70;;;16.20;57.50;;;;;;4970044;28;20454;-76
2023/01/09 07:07:41;;;;;;;1.80;1.70;;;16.20;57.60;;;;;;4971544;28;20478;-76
2023/01/09 07:10:10;;;;;;;2.23;1.90;;;16.10;57.40;;;;;;4967353;28;20458;-76
2023/01/09 07:12:38;;;;;;;1.90;1.80;;;16.10;57.50;;;;;;4968931;28;20469;-77
2023/01/09 07:15:07;;;;;;;1.90;1.80;;;16.10;57.50;;;;;;4972151;28;20489;-77
2023/01/09 07:17:35;;;;;;;5.33;2.40;;;16.10;57.40;;;;;;4974217;28;20485;-76
2023/01/09 07:20:05;;;;;;;2.00;1.80;;;16.10;57.60;;;;;;4971332;28;20454;-76
2023/01/09 07:22:34;;;;;;;2.10;1.77;;;16.10;57.60;;;;;;4971173;28;20538;-76
2023/01/09 07:25:01;;;;;;;2.30;2.20;;;16.20;57.60;;;;;;4970983;28;20459;-76
2023/01/09 07:27:30;;;;;;;2.30;2.10;;;16.10;58.00;;;;;;4973440;28;20454;-76
2023/01/09 07:29:57;;;;;;;2.00;1.90;;;16.10;57.60;;;;;;4972466;28;20454;-76
2023/01/09 07:32:25;;;;;;;1.80;1.70;;;16.10;57.50;;;;;;4972372;28;20540;-76
2023/01/09 07:34:53;;;;;;;2.40;2.20;;;16.20;57.60;;;;;;4975220;28;20466;-76
2023/01/09 07:37:22;;;;;;;4.20;2.47;;;16.20;57.80;;;;;;4966425;28;20458;-76
2023/01/09 07:39:49;;;;;;;2.00;1.90;;;16.20;57.80;;;;;;4971217;28;20461;-77
2023/01/09 07:42:17;;;;;;;1.83;1.73;;;16.20;57.80;;;;;;4975292;28;20462;-76
2023/01/09 07:44:45;;;;;;;2.00;1.90;;;16.20;57.80;;;;;;4971256;28;20470;-76
2023/01/09 07:47:13;;;;;;;2.27;1.90;;;16.20;57.90;;;;;;4969991;28;20454;-76
2023/01/09 07:49:40;;;;;;;2.63;2.13;;;16.20;57.80;;;;;;4975760;28;20454;-77
2023/01/09 07:52:08;;;;;;;2.10;1.90;;;16.20;57.90;;;;;;4974389;28;20545;-76
2023/01/09 07:54:38;;;;;;;2.03;1.93;;;16.20;57.90;;;;;;4972113;28;20492;-76
2023/01/09 07:57:05;;;;;;;2.50;2.30;;;16.20;58.00;;;;;;4973418;28;20458;-76
2023/01/09 07:59:34;;;;;;;3.10;2.00;;;16.20;58.00;;;;;;4973332;28;20454;-76
2023/01/09 08:02:04;;;;;;;2.10;1.90;;;16.20;57.90;;;;;;4972219;28;20442;-76
2023/01/09 08:04:32;;;;;;;3.03;2.00;;;16.20;57.90;;;;;;4975001;28;20470;-76
2023/01/09 08:07:01;;;;;;;2.40;2.20;;;16.20;58.60;;;;;;4974767;28;20449;-75
2023/01/09 08:09:29;;;;;;;2.40;2.20;;;16.20;58.00;;;;;;4967826;28;20447;-77
2023/01/09 08:11:59;;;;;;;2.40;2.17;;;16.30;58.00;;;;;;4969735;28;20456;-76
2023/01/09 08:14:26;;;;;;;3.43;2.60;;;16.30;58.60;;;;;;4974181;28;20469;-76
2023/01/09 08:16:54;;;;;;;2.37;2.17;;;16.30;58.00;;;;;;4974486;28;20453;-77
2023/01/09 08:19:22;;;;;;;2.23;2.03;;;16.30;58.60;;;;;;4972170;28;20458;-76
2023/01/09 08:21:50;;;;;;;3.00;2.23;;;16.30;58.10;;;;;;4973993;28;20457;-76
2023/01/09 08:24:18;;;;;;;2.13;1.90;;;16.30;57.90;;;;;;4971921;28;20470;-76
2023/01/09 08:26:46;;;;;;;2.70;2.50;;;16.30;58.00;;;;;;4968915;28;20446;-76
2023/01/09 08:29:15;;;;;;;5.07;2.23;;;16.30;58.10;;;;;;4973569;28;20450;-76
2023/01/09 08:31:44;;;;;;;2.17;2.07;;;16.30;58.10;;;;;;4974666;28;20470;-76
2023/01/09 08:34:11;;;;;;;2.37;2.17;;;16.30;58.10;;;;;;4971430;28;20557;-76
2023/01/09 08:36:39;;;;;;;2.10;2.00;;;16.40;58.20;;;;;;4975193;28;20478;-76
2023/01/09 08:39:08;;;;;;;2.07;1.83;;;16.40;58.10;;;;;;4973680;28;20450;-75
2023/01/09 08:47:08;;;;;;;2.50;2.03;;;16.40;58.10;;;;;;4970259;28;20462;-76
2023/01/09 08:49:38;;;;;;;2.10;1.90;;;16.50;58.30;;;;;;4969535;28;20457;-75
2023/01/09 08:52:06;;;;;;;2.20;2.00;;;16.50;58.20;;;;;;4978749;28;20454;-75
2023/01/09 08:54:35;;;;;;;3.20;1.80;;;16.60;58.20;;;;;;4976593;28;20485;-75
2023/01/09 08:57:03;;;;;;;2.27;1.60;;;16.60;58.00;;;;;;4978713;28;20473;-76
2023/01/09 08:59:32;;;;;;;1.97;1.87;;;16.70;58.00;;;;;;4966864;28;20466;-76
2023/01/09 09:02:01;;;;;;;3.43;2.00;;;16.80;58.10;;;;;;4969507;28;20466;-76
2023/01/09 09:04:29;;;;;;;2.30;2.10;;;16.90;58.20;;;;;;4967474;28;20473;-76
2023/01/09 09:06:57;;;;;;;3.50;1.93;;;17.10;58.10;;;;;;4970432;28;20459;-76
2023/01/09 09:09:25;;;;;;;5.63;1.80;;;17.10;57.80;;;;;;4972680;28;20454;-74
2023/01/09 09:11:53;;;;;;;2.20;2.00;;;17.10;57.70;;;;;;4969323;28;20463;-76
2023/01/09 09:17:08;;;;;;;2.40;2.20;;;17.10;57.70;;;;;;4968822;28;20486;-76
2023/01/09 09:19:36;;;;;;;1.87;1.70;;;17.10;57.80;;;;;;4966845;28;20454;-76
2023/01/09 09:22:04;;;;;;;3.13;1.83;;;17.10;57.70;;;;;;4968761;28;20514;-75
2023/01/09 09:24:31;;;;;;;7.63;2.30;;;17.10;57.70;;;;;;4968656;28;20474;-75
2023/01/09 09:26:59;;;;;;;3.53;2.60;;;17.10;57.80;;;;;;4967102;28;20454;-76
2023/01/09 09:29:27;;;;;;;5.57;3.10;;;17.10;58.00;;;;;;4965611;28;20526;-77
2023/01/09 09:31:55;;;;;;;4.47;3.07;;;17.00;57.90;;;;;;4968933;28;20459;-77
2023/01/09 09:34:24;;;;;;;4.83;3.47;;;17.10;58.00;;;;;;4966628;28;20477;-77
2023/01/09 09:36:52;;;;;;;2.80;2.60;;;17.00;57.80;;;;;;4966229;28;20478;-76
2023/01/09 09:39:20;;;;;;;3.97;3.20;;;17.00;58.00;;;;;;4966679;28;20521;-75
2023/01/09 09:45:20;;;;;;;3.83;3.50;;;17.00;58.00;;;;;;4933715;29;20452;-76
2023/01/09 09:47:52;;;;;;;5.00;4.00;;;17.00;58.10;;;;;;4969882;28;20501;-76
2023/01/09 09:50:31;;;;;;;5.50;4.10;;;16.90;58.00;;;;;;4965426;28;20458;-76
2023/01/09 09:53:01;;;;;;;5.20;4.43;;;17.00;58.20;;;;;;4967750;28;20485;-76
2023/01/09 09:55:30;;;;;;;4.57;4.17;;;17.00;58.20;;;;;;4971770;28;20454;-76
2023/01/09 09:58:00;;;;;;;5.57;4.10;;;17.00;58.60;;;;;;4972702;28;20469;-76
2023/01/09 10:00:27;;;;;;;5.50;4.40;;;17.00;58.20;;;;;;4968624;28;20466;-76
2023/01/09 10:02:58;;;;;;;5.47;4.70;;;17.00;58.20;;;;;;4968210;28;20489;-76
2023/01/09 10:05:28;;;;;;;5.93;5.00;;;17.00;58.10;;;;;;4970558;28;20498;-74
2023/01/09 10:07:57;;;;;;;5.17;4.57;;;17.00;58.00;;;;;;4967295;28;20458;-76
2023/01/09 10:10:40;;;;;;;8.53;4.70;;;17.00;57.90;;;;;;4960615;28;20950;-76
2023/01/09 10:15:54;;;;;;;5.53;4.50;;;17.00;58.10;;;;;;4968093;28;20489;-77
2023/01/09 10:18:25;;;;;;;7.10;5.00;;;17.00;58.00;;;;;;4966642;28;20469;-77
2023/01/09 10:20:57;;;;;;;7.63;4.80;;;17.00;58.00;;;;;;4971307;28;20457;-76
2023/01/09 10:23:44;;;;;;;5.17;4.53;;;17.00;58.20;;;;;;4973174;28;20509;-76
2023/01/09 10:26:16;;;;;;;6.10;4.63;;;17.10;58.20;;;;;;4969567;28;20446;-76
2023/01/09 10:28:53;;;;;;;7.40;4.97;;;17.10;57.90;;;;;;4962121;28;20455;-77
2023/01/09 10:31:23;;;;;;;5.83;4.73;;;17.20;57.80;;;;;;4971488;28;20449;-80
2023/01/09 10:33:54;;;;;;;6.67;5.23;;;17.20;57.60;;;;;;4972605;28;20474;-77
2023/01/09 10:36:33;;;;;;;6.43;4.90;;;17.20;57.60;;;;;;4972495;28;20517;-76
2023/01/09 10:39:03;;;;;;;6.33;5.30;;;17.20;57.50;;;;;;4973042;28;20480;-79
2023/01/09 10:41:34;;;;;;;5.80;5.10;;;17.10;57.50;;;;;;4965004;28;20451;-79
2023/01/09 10:44:04;;;;;;;8.30;5.37;;;17.10;57.60;;;;;;4968688;28;20478;-81
2023/01/09 10:46:34;;;;;;;6.40;5.07;;;17.20;57.70;;;;;;4969924;28;20455;-78
2023/01/09 10:49:08;;;;;;;6.90;4.63;;;17.10;57.50;;;;;;4979178;28;20459;-78
2023/01/09 10:51:41;;;;;;;7.63;4.90;;;17.10;57.50;;;;;;4967392;28;20458;-80
2023/01/09 10:54:12;;;;;;;5.47;4.80;;;17.10;57.50;;;;;;4972826;28;20466;-79
2023/01/09 10:56:40;;;;;;;5.93;5.03;;;17.10;57.50;;;;;;4977506;28;20472;-79
2023/01/09 10:59:09;;;;;;;8.10;4.97;;;17.10;57.60;;;;;;4967492;28;20976;-79
2023/01/09 11:01:38;;;;;;;5.83;4.80;;;17.10;57.60;;;;;;4975376;28;20461;-78
2023/01/09 11:04:11;;;;;;;9.50;5.00;;;17.10;57.60;;;;;;4973390;28;20466;-78
2023/01/09 11:06:44;;;;;;;5.63;4.60;;;17.10;57.60;;;;;;4975309;28;20481;-79
2023/01/09 11:09:13;;;;;;;6.80;5.03;;;17.10;57.70;;;;;;4973327;28;20450;-80
2023/01/09 11:11:43;;;;;;;6.90;4.63;;;17.10;57.90;;;;;;4977219;28;20464;-79
2023/01/09 11:14:14;;;;;;;6.90;5.27;;;17.10;57.90;;;;;;4972324;28;20478;-79
2023/01/09 11:16:51;;;;;;;5.80;5.07;;;17.10;57.70;;;;;;4974063;28;20489;-79
2023/01/09 11:19:19;;;;;;;7.93;5.20;;;17.20;57.90;;;;;;4977672;28;20460;-78
2023/01/09 11:21:49;;;;;;;7.90;5.10;;;17.20;57.90;;;;;;4971527;28;20545;-78
2023/01/09 11:24:28;;;;;;;7.70;4.60;;;17.30;58.60;;;;;;4974835;28;20558;-79
2023/01/09 11:27:22;;;;;;;7.43;4.97;;;17.40;58.00;;;;;;4969274;28;20458;-78
2023/01/09 11:30:25;;;;;;;5.47;4.90;;;17.40;57.80;;;;;;4971040;28;20486;-79
2023/01/09 11:32:53;;;;;;;5.90;4.83;;;17.40;57.70;;;;;;4967087;28;20477;-79
2023/01/09 11:35:25;;;;;;;9.47;5.13;;;17.50;58.00;;;;;;4977277;28;20462;-76
2023/01/09 11:38:16;;;;;;;6.10;5.30;;;17.60;57.80;;;;;;4970862;28;20481;-77
2023/01/09 11:40:46;;;;;;;6.67;5.77;;;17.60;57.60;;;;;;4961976;28;20463;-78
2023/01/09 11:43:16;;;;;;;8.73;5.57;;;17.70;57.70;;;;;;4968350;28;20474;-77
2023/01/09 11:45:47;;;;;;;6.87;4.70;;;17.70;57.70;;;;;;4965888;28;20451;-77
2023/01/09 11:48:29;;;;;;;6.53;4.80;;;17.80;57.50;;;;;;4963986;28;20456;-79
2023/01/09 11:50:58;;;;;;;6.37;5.13;;;17.80;57.40;;;;;;4965303;28;20450;-78
2023/01/09 11:53:28;;;;;;;6.37;5.20;;;17.80;57.40;;;;;;4971015;28;20477;-78
2023/01/09 11:55:59;;;;;;;5.87;5.27;;;17.80;57.30;;;;;;4968502;28;20481;-78
2023/01/09 11:58:30;;;;;;;6.30;5.23;;;17.80;57.40;;;;;;4965749;28;20487;-78
2023/01/09 12:01:03;;;;;;;9.07;5.10;;;17.80;57.30;;;;;;4977327;28;20464;-77
2023/01/09 12:03:41;;;;;;;5.77;5.07;;;17.80;57.20;;;;;;4964345;28;20538;-78
2023/01/09 12:06:13;;;;;;;6.47;5.37;;;17.80;57.30;;;;;;4961182;28;20455;-76
2023/01/09 12:08:47;;;;;;;5.57;5.07;;;17.80;57.40;;;;;;4968915;28;20447;-78
2023/01/09 12:11:28;;;;;;;6.93;5.73;;;17.70;57.30;;;;;;4964837;28;20453;-76
2023/01/09 12:14:07;;;;;;;9.90;5.17;;;17.70;57.50;;;;;;4967032;28;20485;-78
2023/01/09 12:16:36;;;;;;;5.77;5.27;;;17.70;57.40;;;;;;4970321;28;20450;-79
2023/01/09 12:19:18;;;;;;;7.77;5.50;;;17.60;57.50;;;;;;4972556;28;20501;-78
2023/01/09 12:21:48;;;;;;;5.80;5.30;;;17.60;57.60;;;;;;4975995;28;20454;-78
2023/01/09 12:24:41;;;;;;;7.40;5.67;;;17.60;57.70;;;;;;4965684;28;20478;-79
2023/01/09 12:27:17;;;;;;;5.40;4.90;;;17.60;57.60;;;;;;4972878;28;20465;-78
2023/01/09 12:29:53;;;;;;;8.07;5.50;;;17.50;57.70;;;;;;4968668;28;20469;-79
2023/01/09 12:32:43;;;;;;;9.17;5.37;;;17.50;57.80;;;;;;4968007;28;20472;-79
2023/01/09 12:35:17;;;;;;;10.90;5.73;;;17.50;57.90;;;;;;4975187;28;20454;-78
2023/01/09 12:38:20;;;;;;;7.47;5.20;;;17.50;58.00;;;;;;4966455;28;20474;-79
2023/01/09 12:41:24;;;;;;;8.67;5.10;;;17.50;58.10;;;;;;4972155;28;20524;-78
2023/01/09 12:44:04;;;;;;;8.03;5.50;;;17.40;58.10;;;;;;4941522;28;20926;-78
2023/01/09 12:46:33;;;;;;;7.67;5.53;;;17.40;58.10;;;;;;4967703;28;20512;-78
2023/01/09 12:49:14;;;;;;;7.83;5.77;;;17.40;58.20;;;;;;4969281;28;20455;-79
2023/01/09 12:51:44;;;;;;;7.80;5.00;;;17.50;58.30;;;;;;4980108;28;20468;-78
2023/01/09 12:54:15;;;;;;;10.20;5.60;;;17.50;58.20;;;;;;4971034;28;20474;-78
2023/01/09 12:56:44;;;;;;;7.00;4.80;;;17.50;58.30;;;;;;4973398;28;20501;-77
2023/01/09 12:59:21;;;;;;;8.00;5.60;;;17.50;58.30;;;;;;4977788;28;20572;-78
2023/01/09 13:01:49;;;;;;;6.13;5.10;;;17.50;58.20;;;;;;4975363;28;20465;-78
2023/01/09 13:04:19;;;;;;;5.30;4.80;;;17.50;58.30;;;;;;4975397;28;20504;-78
2023/01/09 13:06:50;;;;;;;5.23;4.80;;;17.60;58.30;;;;;;4973864;28;20449;-77
2023/01/09 13:09:22;;;;;;;5.90;4.97;;;17.60;58.30;;;;;;4970586;28;20451;-78
2023/01/09 13:11:54;;;;;;;6.00;5.03;;;17.60;58.20;;;;;;4966570;28;20455;-77
2023/01/09 13:14:27;;;;;;;5.10;4.67;;;17.70;58.20;;;;;;4972690;28;20477;-76
2023/01/09 13:16:55;;;;;;;6.57;5.00;;;17.70;58.20;;;;;;4964990;28;20469;-77
2023/01/09 13:19:25;;;;;;;5.80;5.20;;;17.70;58.20;;;;;;4981192;28;20465;-76
2023/01/09 13:21:53;;;;;;;5.70;5.07;;;17.70;58.10;;;;;;4972595;28;20458;-78